createdAt,value
2018-08-16T00:00:46.237Z,15.50
2018-08-16T00:03:13.625Z,15.50
2018-08-16T00:05:41.072Z,15.50
2018-08-16T00:08:08.516Z,15.60
2018-08-16T00:10:35.977Z,15.60
2018-08-16T00:13:03.414Z,15.50
2018-08-16T00:15:30.877Z,15.50
2018-08-16T00:17:58.309Z,15.40
2018-08-16T00:20:26.604Z,15.30
2018-08-16T00:22:54.017Z,15.30
2018-08-16T00:25:21.474Z,15.30
2018-08-16T00:27:55.957Z,15.30
2018-08-16T00:30:23.446Z,15.20
2018-08-16T00:32:50.886Z,15.10
2018-08-16T00:35:18.661Z,15.10
2018-08-16T00:37:46.095Z,15.30
2018-08-16T00:40:14.707Z,15.20
2018-08-16T00:42:42.137Z,15.10
2018-08-16T00:45:10.101Z,15.10
2018-08-16T00:47:37.601Z,15.10
2018-08-16T00:50:05.633Z,14.90
2018-08-16T00:52:33.273Z,14.90
2018-08-16T00:55:00.876Z,14.90
2018-08-16T00:57:28.324Z,15.00
2018-08-16T00:59:57.779Z,15.00
2018-08-16T01:02:25.232Z,15.00
2018-08-16T01:04:52.686Z,14.90
2018-08-16T01:07:20.279Z,14.80
2018-08-16T01:09:47.745Z,14.90
2018-08-16T01:12:18.978Z,14.80
2018-08-16T01:14:46.484Z,14.80
2018-08-16T01:17:13.923Z,14.90
2018-08-16T01:19:41.379Z,14.90
2018-08-16T01:22:09.285Z,14.80
2018-08-16T01:24:37.142Z,14.70
2018-08-16T01:27:05.750Z,14.70
2018-08-16T01:29:33.266Z,14.70
2018-08-16T01:32:00.703Z,14.70
2018-08-16T01:34:28.137Z,14.70
2018-08-16T01:36:55.822Z,14.70
2018-08-16T01:39:23.249Z,14.70
2018-08-16T01:41:50.680Z,14.70
2018-08-16T01:44:18.129Z,14.70
2018-08-16T01:46:45.552Z,14.70
2018-08-16T01:49:24.296Z,14.60
2018-08-16T01:51:51.708Z,14.50
2018-08-16T01:54:19.321Z,14.50
2018-08-16T01:56:46.791Z,14.50
2018-08-16T01:59:14.224Z,14.50
2018-08-16T02:01:41.668Z,14.50
2018-08-16T02:04:09.092Z,14.50
2018-08-16T02:06:36.527Z,14.40
2018-08-16T02:09:05.121Z,14.40
2018-08-16T02:11:32.577Z,14.40
2018-08-16T02:14:00.017Z,14.30
2018-08-16T02:27:32.652Z,14.20
2018-08-16T02:30:00.094Z,14.10
2018-08-16T02:32:27.513Z,14.10
2018-08-16T02:34:54.972Z,14.10
2018-08-16T02:37:22.401Z,14.00
2018-08-16T02:39:49.841Z,14.00
2018-08-16T02:42:17.265Z,14.00
2018-08-16T02:44:44.700Z,14.00
2018-08-16T02:47:12.133Z,13.90
2018-08-16T02:49:39.564Z,14.00
2018-08-16T02:52:06.987Z,13.90
2018-08-16T02:54:34.489Z,13.90
2018-08-16T02:57:01.929Z,13.90
2018-08-16T02:59:29.360Z,13.90
2018-08-16T03:01:56.860Z,14.00
2018-08-16T03:04:24.292Z,14.00
2018-08-16T03:06:51.728Z,13.90
2018-08-16T03:09:19.168Z,13.90
2018-08-16T03:11:46.615Z,13.80
2018-08-16T03:14:21.844Z,13.70
2018-08-16T03:16:49.277Z,13.70
2018-08-16T03:19:16.704Z,13.70
2018-08-16T03:21:44.165Z,13.70
2018-08-16T03:24:11.610Z,13.70
2018-08-16T03:26:39.072Z,13.70
2018-08-16T03:29:06.524Z,13.70
2018-08-16T03:31:34.017Z,13.60
2018-08-16T03:34:01.448Z,13.60
2018-08-16T03:36:28.893Z,13.60
2018-08-16T03:38:56.318Z,13.60
2018-08-16T03:41:23.757Z,13.60
2018-08-16T03:43:51.184Z,13.60
2018-08-16T03:46:19.669Z,13.60
2018-08-16T03:48:47.116Z,13.50
2018-08-16T03:51:14.624Z,13.50
2018-08-16T03:53:42.062Z,13.50
2018-08-16T03:56:09.488Z,13.40
2018-08-16T03:58:36.916Z,13.40
2018-08-16T04:01:04.340Z,13.30
2018-08-16T04:03:31.781Z,13.30
2018-08-16T04:06:03.613Z,13.30
2018-08-16T04:08:31.556Z,13.30
2018-08-16T04:10:58.980Z,13.30
2018-08-16T04:13:26.435Z,13.30
2018-08-16T04:15:53.868Z,13.40
2018-08-16T04:18:21.316Z,13.30
2018-08-16T04:20:48.760Z,13.30
2018-08-16T04:23:18.616Z,13.30
2018-08-16T04:25:46.043Z,13.30
2018-08-16T04:28:13.525Z,13.30
2018-08-16T04:30:40.948Z,13.30
2018-08-16T04:33:08.504Z,13.30
2018-08-16T04:35:36.034Z,13.30
2018-08-16T04:38:03.413Z,13.20
2018-08-16T04:40:30.877Z,13.20
2018-08-16T04:42:58.317Z,13.20
2018-08-16T04:45:25.764Z,13.20
2018-08-16T04:47:53.196Z,13.20
2018-08-16T04:50:20.637Z,13.30
2018-08-16T04:52:48.493Z,13.40
2018-08-16T04:55:16.057Z,13.50
2018-08-16T04:57:43.729Z,13.60
2018-08-16T05:00:12.730Z,13.70
2018-08-16T05:02:40.350Z,13.80
2018-08-16T05:05:08.405Z,13.80
2018-08-16T05:07:36.089Z,13.90
2018-08-16T05:10:04.574Z,13.90
2018-08-16T05:12:32.268Z,14.00
2018-08-16T05:14:59.895Z,14.00
2018-08-16T05:17:27.536Z,14.10
2018-08-16T05:22:51.703Z,14.30
2018-08-16T05:25:19.502Z,14.40
2018-08-16T05:27:47.178Z,14.40
2018-08-16T05:30:14.865Z,14.50
2018-08-16T05:32:42.514Z,14.60
2018-08-16T05:35:10.199Z,14.70
2018-08-16T05:37:38.471Z,14.80
2018-08-16T05:40:06.809Z,14.90
2018-08-16T05:42:36.622Z,15.00
2018-08-16T05:45:04.636Z,15.00
2018-08-16T05:47:32.249Z,15.10
2018-08-16T05:49:59.883Z,15.10
2018-08-16T05:52:27.560Z,15.20
2018-08-16T05:54:55.338Z,15.20
2018-08-16T05:57:22.992Z,15.30
2018-08-16T05:59:50.766Z,15.40
2018-08-16T06:02:18.642Z,15.50
2018-08-16T06:04:46.297Z,15.70
2018-08-16T06:07:13.971Z,15.80
2018-08-16T06:09:41.721Z,16.10
2018-08-16T06:12:09.401Z,16.20
2018-08-16T06:14:37.374Z,16.50
2018-08-16T06:17:05.148Z,16.70
2018-08-16T06:19:32.784Z,16.90
2018-08-16T06:22:00.392Z,17.20
2018-08-16T06:24:28.216Z,17.30
2018-08-16T06:26:55.880Z,17.50
2018-08-16T06:29:23.544Z,17.60
2018-08-16T06:31:51.173Z,17.70
2018-08-16T06:34:18.852Z,18.00
2018-08-16T06:36:46.501Z,18.20
2018-08-16T06:39:14.138Z,18.40
2018-08-16T06:41:42.038Z,18.60
2018-08-16T06:44:17.077Z,18.60
2018-08-16T06:46:44.774Z,18.90
2018-08-16T06:49:12.432Z,19.00
2018-08-16T06:51:40.259Z,19.30
2018-08-16T06:54:08.054Z,19.40
2018-08-16T06:56:35.742Z,19.50
2018-08-16T06:59:03.520Z,19.50
2018-08-16T07:01:31.181Z,19.80
2018-08-16T07:03:58.906Z,20.00
2018-08-16T07:06:26.714Z,20.20
2018-08-16T07:08:54.349Z,20.30
2018-08-16T07:11:22.069Z,20.30
2018-08-16T07:13:49.703Z,20.30
2018-08-16T07:16:17.317Z,20.60
2018-08-16T07:18:44.962Z,20.80
2018-08-16T07:21:12.535Z,20.90
2018-08-16T07:23:40.199Z,21.00
2018-08-16T07:26:07.856Z,21.20
2018-08-16T07:28:35.507Z,21.30
2018-08-16T07:31:04.302Z,21.40
2018-08-16T07:33:32.016Z,21.60
2018-08-16T07:35:59.617Z,21.70
2018-08-16T07:38:27.261Z,21.90
2018-08-16T07:40:54.957Z,22.10
2018-08-16T07:43:22.531Z,22.30
2018-08-16T07:45:50.346Z,22.40
2018-08-16T07:48:17.826Z,22.60
2018-08-16T07:50:45.460Z,22.80
2018-08-16T07:53:13.078Z,23.00
2018-08-16T07:55:40.757Z,23.30
2018-08-16T07:58:21.738Z,23.50
2018-08-16T08:00:49.386Z,23.60
2018-08-16T08:03:16.921Z,23.80
2018-08-16T08:05:44.534Z,23.90
2018-08-16T08:08:12.090Z,24.10
2018-08-16T08:10:39.859Z,24.30
2018-08-16T08:13:11.700Z,24.40
2018-08-16T08:15:41.437Z,24.60
2018-08-16T08:18:09.173Z,24.80
2018-08-16T08:20:36.926Z,24.90
2018-08-16T08:23:04.530Z,25.00
2018-08-16T08:25:32.161Z,25.20
2018-08-16T08:27:59.765Z,25.30
2018-08-16T08:30:27.357Z,25.40
2018-08-16T08:32:54.962Z,25.60
2018-08-16T08:35:22.598Z,25.80
2018-08-16T08:37:55.870Z,25.90
2018-08-16T08:40:23.584Z,26.10
2018-08-16T08:42:51.195Z,26.20
2018-08-16T08:45:18.752Z,26.50
2018-08-16T08:47:49.272Z,26.70
2018-08-16T08:50:20.641Z,26.80
2018-08-16T08:52:48.281Z,26.80
2018-08-16T08:55:21.548Z,27.00
2018-08-16T08:58:04.842Z,27.20
2018-08-16T09:00:32.456Z,27.30
2018-08-16T09:03:00.121Z,27.50
2018-08-16T09:05:27.890Z,27.50
2018-08-16T09:07:55.468Z,27.60
2018-08-16T09:10:54.169Z,27.70
2018-08-16T09:13:27.361Z,27.70
2018-08-16T09:15:55.073Z,27.90
2018-08-16T09:21:18.460Z,27.70
2018-08-16T09:23:46.146Z,27.40
2018-08-16T09:26:19.387Z,27.50
2018-08-16T09:28:46.969Z,28.00
2018-08-16T09:31:20.655Z,28.20
2018-08-16T09:34:23.395Z,28.50
2018-08-16T09:36:52.038Z,28.70
2018-08-16T09:39:19.676Z,28.90
2018-08-16T09:41:47.213Z,29.30
2018-08-16T09:44:14.910Z,29.40
2018-08-16T09:46:49.654Z,29.60
2018-08-16T09:49:17.227Z,29.30
2018-08-16T09:51:46.072Z,29.50
2018-08-16T09:54:13.690Z,29.60
2018-08-16T09:56:41.751Z,29.80
2018-08-16T09:59:09.545Z,30.00
2018-08-16T10:01:37.237Z,30.10
2018-08-16T10:04:05.577Z,30.30
2018-08-16T10:06:33.402Z,30.50
2018-08-16T10:09:01.038Z,30.60
2018-08-16T10:11:28.756Z,30.70
2018-08-16T10:13:57.889Z,30.70
2018-08-16T10:16:25.597Z,30.80
2018-08-16T10:18:53.245Z,30.80
2018-08-16T10:21:26.387Z,30.60
2018-08-16T10:23:54.031Z,30.50
2018-08-16T10:26:21.642Z,30.60
2018-08-16T10:28:49.241Z,30.90
2018-08-16T10:31:16.965Z,30.60
2018-08-16T10:33:57.713Z,30.80
2018-08-16T10:36:25.582Z,30.80
2018-08-16T10:38:53.215Z,30.80
2018-08-16T10:41:20.849Z,31.00
2018-08-16T10:43:48.555Z,30.70
2018-08-16T10:46:16.123Z,31.00
2018-08-16T10:48:43.722Z,31.20
2018-08-16T10:51:11.484Z,31.20
2018-08-16T10:53:39.167Z,31.30
2018-08-16T10:56:06.784Z,31.40
2018-08-16T11:01:21.827Z,31.60
2018-08-16T11:03:49.585Z,31.60
2018-08-16T11:06:17.513Z,31.60
2018-08-16T11:08:46.208Z,31.80
2018-08-16T11:11:14.100Z,32.00
2018-08-16T11:13:41.938Z,32.10
2018-08-16T11:16:09.761Z,32.30
2018-08-16T11:18:38.323Z,32.40
2018-08-16T11:21:18.770Z,32.30
2018-08-16T11:23:46.498Z,31.90
2018-08-16T11:26:18.786Z,31.90
2018-08-16T11:28:46.478Z,32.10
2018-08-16T11:31:14.245Z,32.50
2018-08-16T11:33:45.955Z,32.40
2018-08-16T11:36:13.662Z,32.30
2018-08-16T11:38:41.238Z,32.20
2018-08-16T11:41:11.134Z,31.70
2018-08-16T11:43:38.869Z,32.00
2018-08-16T11:46:08.758Z,32.20
2018-08-16T11:48:40.010Z,32.30
2018-08-16T11:51:08.762Z,32.00
2018-08-16T11:53:37.378Z,32.30
2018-08-16T11:56:07.288Z,32.50
2018-08-16T11:58:35.144Z,32.60
2018-08-16T12:01:03.011Z,32.70
2018-08-16T12:03:30.883Z,32.90
2018-08-16T12:05:58.897Z,33.00
2018-08-16T12:08:26.772Z,33.10
2018-08-16T12:11:01.262Z,32.90
2018-08-16T12:13:37.028Z,32.90
2018-08-16T12:16:04.688Z,32.60
2018-08-16T12:18:33.259Z,32.70
2018-08-16T12:21:00.954Z,32.50
2018-08-16T12:23:28.573Z,32.70
2018-08-16T12:25:56.167Z,32.60
2018-08-16T12:28:23.802Z,32.80
2018-08-16T12:31:01.530Z,32.90
2018-08-16T12:33:29.184Z,33.10
2018-08-16T12:36:03.285Z,33.30
2018-08-16T12:38:31.186Z,33.40
2018-08-16T12:40:58.870Z,33.30
2018-08-16T12:43:32.035Z,33.10
2018-08-16T12:45:59.858Z,33.20
2018-08-16T12:48:27.509Z,33.10
2018-08-16T12:50:55.202Z,33.00
2018-08-16T12:53:22.811Z,33.00
2018-08-16T12:55:50.462Z,32.90
2018-08-16T12:58:18.104Z,32.80
2018-08-16T13:00:45.700Z,32.90
2018-08-16T13:03:13.323Z,32.90
2018-08-16T13:05:41.762Z,33.00
2018-08-16T13:08:09.426Z,33.00
2018-08-16T13:10:37.085Z,32.90
2018-08-16T13:13:23.013Z,32.90
2018-08-16T13:15:50.605Z,32.60
2018-08-16T13:18:18.195Z,32.50
2018-08-16T13:20:45.857Z,32.50
2018-08-16T13:23:13.451Z,32.50
2018-08-16T13:25:41.041Z,32.50
2018-08-16T13:28:08.679Z,32.40
2018-08-16T13:30:36.253Z,32.30
2018-08-16T13:33:03.894Z,32.40
2018-08-16T13:35:31.496Z,32.30
2018-08-16T13:37:59.122Z,32.30
2018-08-16T13:40:26.726Z,32.30
2018-08-16T13:42:54.399Z,32.20
2018-08-16T13:45:21.950Z,32.10
2018-08-16T13:47:49.536Z,32.00
2018-08-16T13:50:17.110Z,32.10
2018-08-16T13:52:56.812Z,32.00
2018-08-16T13:55:24.380Z,31.80
2018-08-16T13:57:51.989Z,31.90
2018-08-16T14:00:19.683Z,31.70
2018-08-16T14:02:47.289Z,31.80
2018-08-16T14:05:14.935Z,31.90
2018-08-16T14:07:42.545Z,31.80
2018-08-16T14:10:10.238Z,31.40
2018-08-16T14:12:37.939Z,31.20
2018-08-16T14:15:06.220Z,31.10
2018-08-16T14:17:33.809Z,31.20
2018-08-16T14:20:01.615Z,31.10
2018-08-16T14:25:16.774Z,30.10
2018-08-16T14:27:44.504Z,30.20
2018-08-16T14:30:12.172Z,30.20
2018-08-16T14:32:57.141Z,30.30
2018-08-16T14:35:24.828Z,30.70
2018-08-16T14:37:52.456Z,30.90
2018-08-16T14:40:20.163Z,30.80
2018-08-16T14:43:00.617Z,30.90
2018-08-16T14:45:28.429Z,30.90
2018-08-16T14:47:56.114Z,30.90
2018-08-16T14:50:23.799Z,30.90
2018-08-16T14:52:51.816Z,31.00
2018-08-16T14:55:19.478Z,31.10
2018-08-16T14:57:47.190Z,31.00
2018-08-16T15:00:14.865Z,31.00
2018-08-16T15:02:42.541Z,31.00
2018-08-16T15:05:10.145Z,30.90
2018-08-16T15:07:37.854Z,30.80
2018-08-16T15:10:05.870Z,30.80
2018-08-16T15:12:33.728Z,30.90
2018-08-16T15:15:01.367Z,30.70
2018-08-16T15:17:29.036Z,30.70
2018-08-16T15:19:56.688Z,30.70
2018-08-16T15:22:24.269Z,30.40
2018-08-16T15:24:51.931Z,30.50
2018-08-16T15:27:19.567Z,30.30
2018-08-16T15:29:47.279Z,30.40
2018-08-16T15:32:14.927Z,30.20
2018-08-16T15:34:42.490Z,30.10
2018-08-16T15:37:10.114Z,30.00
2018-08-16T15:39:39.816Z,30.00
2018-08-16T15:42:07.529Z,30.10
2018-08-16T15:44:35.126Z,30.20
2018-08-16T15:47:02.684Z,30.30
2018-08-16T15:49:30.299Z,30.40
2018-08-16T15:51:57.927Z,30.50
2018-08-16T15:54:25.760Z,30.50
2018-08-16T15:56:53.438Z,30.60
2018-08-16T15:59:21.004Z,30.30
2018-08-16T16:01:48.654Z,30.20
2018-08-16T16:04:16.404Z,30.20
2018-08-16T16:06:44.027Z,30.20
2018-08-16T16:09:11.740Z,30.20
2018-08-16T16:11:39.439Z,30.10
2018-08-16T16:14:07.509Z,30.10
2018-08-16T16:16:35.175Z,30.10
2018-08-16T16:19:13.767Z,30.10
2018-08-16T16:21:41.422Z,30.00
2018-08-16T16:24:09.080Z,29.90
2018-08-16T16:29:34.662Z,29.90
2018-08-16T16:32:02.406Z,29.90
2018-08-16T16:34:30.134Z,30.00
2018-08-16T16:36:57.758Z,30.00
2018-08-16T16:39:25.490Z,30.00
2018-08-16T16:41:53.080Z,29.90
2018-08-16T16:44:20.701Z,29.90
2018-08-16T16:46:48.363Z,29.90
2018-08-16T16:49:20.305Z,29.80
2018-08-16T16:51:47.925Z,29.80
2018-08-16T16:54:19.901Z,29.80
2018-08-16T16:56:47.507Z,29.70
2018-08-16T16:59:15.205Z,29.60
2018-08-16T17:01:43.185Z,29.60
2018-08-16T17:04:16.615Z,29.50
2018-08-16T17:06:46.183Z,29.50
2018-08-16T17:09:13.943Z,29.40
2018-08-16T17:11:42.249Z,29.40
2018-08-16T17:14:10.186Z,29.30
2018-08-16T17:16:38.093Z,29.30
2018-08-16T17:19:05.945Z,29.30
2018-08-16T17:21:33.867Z,29.20
2018-08-16T17:24:01.684Z,29.10
2018-08-16T17:26:34.876Z,29.00
2018-08-16T17:29:03.001Z,29.00
2018-08-16T17:31:30.909Z,29.00
2018-08-16T17:33:58.776Z,29.00
2018-08-16T17:36:26.514Z,29.00
2018-08-16T17:38:54.431Z,29.10
2018-08-16T17:41:22.167Z,29.10
2018-08-16T17:43:55.892Z,29.10
2018-08-16T17:46:24.693Z,29.20
2018-08-16T17:48:55.731Z,29.10
2018-08-16T17:51:24.171Z,29.10
2018-08-16T17:53:51.897Z,29.10
2018-08-16T17:56:19.672Z,29.10
2018-08-16T17:58:47.416Z,29.10
2018-08-16T18:01:20.331Z,29.00
2018-08-16T18:03:48.011Z,29.00
2018-08-16T18:06:15.831Z,28.90
2018-08-16T18:08:43.945Z,28.90
2018-08-16T18:11:12.113Z,28.80
2018-08-16T18:13:40.155Z,28.80
2018-08-16T18:16:07.928Z,28.70
2018-08-16T18:18:35.967Z,28.70
2018-08-16T18:21:03.660Z,28.70
2018-08-16T18:23:31.356Z,28.60
2018-08-16T18:25:59.071Z,28.50
2018-08-16T18:28:26.854Z,28.30
2018-08-16T18:30:54.658Z,28.10
2018-08-16T18:33:22.361Z,27.90
2018-08-16T18:35:50.108Z,27.80
2018-08-16T18:38:17.971Z,27.60
2018-08-16T18:40:45.721Z,27.40
2018-08-16T18:43:13.466Z,27.30
2018-08-16T18:45:41.102Z,27.20
2018-08-16T18:48:14.787Z,27.00
2018-08-16T18:50:42.618Z,26.90
2018-08-16T18:53:10.335Z,26.80
2018-08-16T18:55:37.957Z,26.50
2018-08-16T18:58:05.578Z,26.30
2018-08-16T19:00:33.396Z,26.10
2018-08-16T19:03:01.140Z,25.90
2018-08-16T19:05:28.918Z,25.70
2018-08-16T19:07:56.542Z,25.60
2018-08-16T19:10:24.294Z,25.30
2018-08-16T19:12:52.034Z,25.20
2018-08-16T19:15:19.781Z,25.10
2018-08-16T19:17:47.462Z,25.00
2018-08-16T19:20:15.181Z,24.80
2018-08-16T19:22:43.020Z,24.70
2018-08-16T19:25:10.719Z,24.70
2018-08-16T19:27:38.478Z,24.50
2018-08-16T19:30:06.233Z,24.50
2018-08-16T19:32:34.143Z,24.50
2018-08-16T19:35:01.882Z,24.60
2018-08-16T19:37:29.601Z,24.60
2018-08-16T19:39:58.355Z,24.80
2018-08-16T19:42:26.074Z,24.80
2018-08-16T19:44:53.740Z,24.80
2018-08-16T19:47:21.476Z,24.70
2018-08-16T19:49:49.259Z,24.80
2018-08-16T19:52:16.943Z,24.70
2018-08-16T19:54:44.626Z,24.60
2018-08-16T19:57:28.065Z,24.60
2018-08-16T19:59:55.906Z,24.50
2018-08-16T20:02:23.604Z,24.40
2018-08-16T20:04:51.322Z,24.40
2018-08-16T20:07:19.113Z,24.20
2018-08-16T20:09:52.259Z,24.10
2018-08-16T20:12:20.009Z,23.80
2018-08-16T20:14:47.679Z,23.70
2018-08-16T20:17:15.918Z,23.50
2018-08-16T20:19:43.612Z,23.60
2018-08-16T20:22:12.555Z,23.60
2018-08-16T20:24:40.322Z,23.60
2018-08-16T20:27:08.028Z,23.50
2018-08-16T20:29:35.737Z,23.50
2018-08-16T20:32:03.470Z,23.50
2018-08-16T20:34:31.177Z,23.50
2018-08-16T20:36:58.890Z,23.40
2018-08-16T20:39:26.544Z,23.40
2018-08-16T20:42:00.227Z,23.40
2018-08-16T20:44:27.847Z,23.30
2018-08-16T20:46:55.584Z,23.20
2018-08-16T20:49:23.496Z,23.10
2018-08-16T20:51:51.113Z,22.90
2018-08-16T20:54:18.866Z,22.70
2018-08-16T20:56:46.490Z,22.60
2018-08-16T20:59:14.167Z,22.40
2018-08-16T21:01:41.899Z,22.40
2018-08-16T21:04:17.534Z,22.30
2018-08-16T21:06:46.250Z,22.20
2018-08-16T21:09:29.561Z,22.20
2018-08-16T21:11:57.217Z,22.20
2018-08-16T21:14:24.857Z,22.20
2018-08-16T21:16:52.516Z,22.10
2018-08-16T21:19:20.245Z,22.10
2018-08-16T21:21:48.019Z,22.10
2018-08-16T21:24:15.557Z,22.00
2018-08-16T21:26:43.226Z,21.90
2018-08-16T21:29:10.851Z,21.90
2018-08-16T21:31:38.499Z,21.80
2018-08-16T21:34:06.141Z,21.80
2018-08-16T21:36:33.872Z,21.70
2018-08-16T21:39:01.509Z,21.70
2018-08-16T21:41:29.159Z,21.60
2018-08-16T21:43:56.886Z,21.60
2018-08-16T21:46:24.518Z,21.50
2018-08-16T21:48:52.164Z,21.40
2018-08-16T21:51:19.807Z,21.40
2018-08-16T21:53:47.504Z,21.40
2018-08-16T21:56:15.142Z,21.30
2018-08-16T21:58:42.796Z,21.20
2018-08-16T22:01:10.394Z,21.10
2018-08-16T22:03:38.066Z,21.20
2018-08-16T22:06:11.085Z,21.20
2018-08-16T22:08:39.005Z,21.20
2018-08-16T22:11:06.789Z,21.20
2018-08-16T22:13:34.453Z,21.30
2018-08-16T22:16:02.140Z,21.30
2018-08-16T22:18:30.872Z,21.30
2018-08-16T22:20:58.544Z,21.20
2018-08-16T22:23:26.240Z,21.10
2018-08-16T22:25:53.829Z,21.00
2018-08-16T22:28:21.483Z,20.90
2018-08-16T22:30:49.147Z,20.80
2018-08-16T22:33:16.770Z,20.70
2018-08-16T22:35:44.360Z,20.70
2018-08-16T22:38:12.017Z,20.60
2018-08-16T22:40:39.602Z,20.60
2018-08-16T22:43:07.221Z,20.50
2018-08-16T22:45:34.954Z,20.50
2018-08-16T22:48:02.556Z,20.50
2018-08-16T22:50:30.212Z,20.40
2018-08-16T22:52:57.812Z,20.40
2018-08-16T22:55:25.393Z,20.30
2018-08-16T22:57:53.048Z,20.20
2018-08-16T23:00:20.617Z,20.20
2018-08-16T23:02:48.630Z,20.10
2018-08-16T23:05:16.292Z,20.10
2018-08-16T23:07:44.063Z,20.10
2018-08-16T23:10:11.781Z,20.10
2018-08-16T23:12:39.443Z,20.00
2018-08-16T23:15:07.193Z,20.10
2018-08-16T23:17:35.008Z,20.00
2018-08-16T23:20:02.976Z,19.90
2018-08-16T23:22:30.785Z,19.70
2018-08-16T23:24:59.413Z,19.70
2018-08-16T23:27:27.301Z,19.60
2018-08-16T23:29:56.095Z,19.50
2018-08-16T23:32:24.210Z,19.50
2018-08-16T23:34:52.003Z,19.50
2018-08-16T23:37:20.138Z,19.50
2018-08-16T23:39:47.966Z,19.40
2018-08-16T23:42:16.470Z,19.50
2018-08-16T23:44:44.320Z,19.50
2018-08-16T23:47:12.044Z,19.40
2018-08-16T23:49:39.827Z,19.30
2018-08-16T23:52:07.682Z,19.40
2018-08-16T23:54:39.431Z,19.40
2018-08-16T23:57:07.302Z,19.30
2018-08-16T23:59:35.229Z,19.30
